createdAt,value
2023-05-02T00:02:14.780Z,11.60
2023-05-02T00:04:42.733Z,11.50
2023-05-02T00:07:11.564Z,11.70
2023-05-02T00:09:39.000Z,11.30
2023-05-02T00:12:06.421Z,11.70
2023-05-02T00:14:35.834Z,11.60
2023-05-02T00:17:04.012Z,11.70
2023-05-02T00:19:31.728Z,11.70
2023-05-02T00:21:58.888Z,11.50
2023-05-02T00:24:27.389Z,11.40
2023-05-02T00:26:55.256Z,11.70
2023-05-02T00:29:22.776Z,11.60
2023-05-02T00:31:50.337Z,11.60
2023-05-02T00:34:18.062Z,11.50
2023-05-02T00:36:45.383Z,11.50
2023-05-02T00:39:13.043Z,11.30
2023-05-02T00:41:42.447Z,11.30
2023-05-02T00:44:09.738Z,11.40
2023-05-02T00:46:40.534Z,11.10
2023-05-02T00:49:08.204Z,11.30
2023-05-02T00:51:35.664Z,11.30
2023-05-02T00:54:03.579Z,11.30
2023-05-02T00:56:31.608Z,11.10
2023-05-02T00:59:05.829Z,11.50
2023-05-02T01:01:54.274Z,11.20
2023-05-02T01:04:43.179Z,11.60
2023-05-02T01:07:20.530Z,11.60
2023-05-02T01:09:59.932Z,11.40
2023-05-02T01:12:48.776Z,11.40
2023-05-02T01:15:19.396Z,11.30
2023-05-02T01:17:49.901Z,11.40
2023-05-02T01:20:21.056Z,11.10
2023-05-02T01:22:49.079Z,11.10
2023-05-02T01:25:41.625Z,11.10
2023-05-02T01:28:29.236Z,11.30
2023-05-02T01:30:57.387Z,11.10
2023-05-02T01:33:27.582Z,11.50
2023-05-02T01:35:56.243Z,11.30
2023-05-02T01:38:25.586Z,11.40
2023-05-02T01:40:54.168Z,11.10
2023-05-02T01:43:25.646Z,11.10
2023-05-02T01:45:54.434Z,11.00
2023-05-02T01:48:24.085Z,11.20
2023-05-02T01:50:52.551Z,11.40
2023-05-02T01:53:25.564Z,11.00
2023-05-02T01:55:54.979Z,11.10
2023-05-02T01:58:23.968Z,11.00
2023-05-02T02:00:51.836Z,10.90
2023-05-02T02:03:20.168Z,11.20
2023-05-02T02:05:49.784Z,11.10
2023-05-02T02:08:16.914Z,10.90
2023-05-02T02:10:50.310Z,11.30
2023-05-02T02:13:26.697Z,11.30
2023-05-02T02:16:02.263Z,11.10
2023-05-02T02:18:33.385Z,11.10
2023-05-02T02:21:01.313Z,10.80
2023-05-02T02:23:30.721Z,11.00
2023-05-02T02:25:59.116Z,11.10
2023-05-02T02:28:27.198Z,10.90
2023-05-02T02:30:55.175Z,10.90
2023-05-02T02:33:28.232Z,10.80
2023-05-02T02:36:06.560Z,10.70
2023-05-02T02:38:47.414Z,10.90
2023-05-02T02:41:18.729Z,10.80
2023-05-02T02:44:04.885Z,10.90
2023-05-02T02:47:07.918Z,10.90
2023-05-02T02:49:47.385Z,10.90
2023-05-02T02:52:48.552Z,10.80
2023-05-02T02:55:44.058Z,10.70
2023-05-02T02:58:33.444Z,10.60
2023-05-02T03:01:03.686Z,10.60
2023-05-02T03:03:33.488Z,10.90
2023-05-02T03:06:01.587Z,11.00
2023-05-02T03:08:38.698Z,10.90
2023-05-02T03:11:06.171Z,10.90
2023-05-02T03:13:33.624Z,10.70
2023-05-02T03:16:20.248Z,11.00
2023-05-02T03:18:48.258Z,10.70
2023-05-02T03:21:15.748Z,11.10
2023-05-02T03:23:43.093Z,10.70
2023-05-02T03:26:10.997Z,10.60
2023-05-02T03:28:38.562Z,10.50
2023-05-02T03:31:06.051Z,10.70
2023-05-02T03:33:33.463Z,10.70
2023-05-02T03:36:01.012Z,10.70
2023-05-02T03:38:30.765Z,10.70
2023-05-02T03:40:58.703Z,10.90
2023-05-02T03:43:26.135Z,10.90
2023-05-02T03:45:53.231Z,10.60
2023-05-02T03:48:20.426Z,10.80
2023-05-02T03:50:48.351Z,10.60
2023-05-02T03:53:16.400Z,10.60
2023-05-02T03:55:43.981Z,10.60
2023-05-02T03:58:11.652Z,10.80
2023-05-02T04:00:39.006Z,10.70
2023-05-02T04:03:06.464Z,10.90
2023-05-02T04:05:33.753Z,10.80
2023-05-02T04:08:01.955Z,10.60
2023-05-02T04:10:32.754Z,10.70
2023-05-02T04:13:03.346Z,10.90
2023-05-02T04:15:34.341Z,11.00
2023-05-02T04:18:01.588Z,10.70
2023-05-02T04:20:29.816Z,10.70
2023-05-02T04:22:57.176Z,10.70
2023-05-02T04:25:24.202Z,10.60
2023-05-02T04:27:51.717Z,10.60
2023-05-02T04:30:19.216Z,10.60
2023-05-02T04:32:47.534Z,10.90
2023-05-02T04:35:15.915Z,10.70
2023-05-02T04:37:43.443Z,10.70
2023-05-02T04:40:14.600Z,10.60
2023-05-02T04:42:42.001Z,10.60
2023-05-02T04:45:09.812Z,10.80
2023-05-02T04:47:36.981Z,10.80
2023-05-02T04:50:04.480Z,10.80
2023-05-02T04:52:31.932Z,10.80
2023-05-02T04:54:59.619Z,10.80
2023-05-02T04:57:26.911Z,10.60
2023-05-02T04:59:54.795Z,11.00
2023-05-02T05:02:23.658Z,10.50
2023-05-02T05:04:52.008Z,10.80
2023-05-02T05:07:19.759Z,10.70
2023-05-02T05:09:47.496Z,10.60
2023-05-02T05:12:14.870Z,10.70
2023-05-02T05:14:45.599Z,10.90
2023-05-02T05:17:13.870Z,11.00
2023-05-02T05:19:41.244Z,10.80
2023-05-02T05:22:10.101Z,10.70
2023-05-02T05:24:37.146Z,11.00
2023-05-02T05:27:04.306Z,10.80
2023-05-02T05:29:33.335Z,10.80
2023-05-02T05:32:00.544Z,11.10
2023-05-02T05:34:27.947Z,11.30
2023-05-02T05:36:55.689Z,11.30
2023-05-02T05:39:23.249Z,11.40
2023-05-02T05:41:50.301Z,11.10
2023-05-02T05:44:17.789Z,11.30
2023-05-02T05:46:44.787Z,11.30
2023-05-02T05:49:12.821Z,11.50
2023-05-02T05:51:40.192Z,11.20
2023-05-02T05:54:07.828Z,11.40
2023-05-02T05:56:35.439Z,11.30
2023-05-02T06:01:45.978Z,11.40
2023-05-02T06:04:13.337Z,11.60
2023-05-02T06:06:40.965Z,11.60
2023-05-02T06:09:08.718Z,11.50
2023-05-02T06:11:37.895Z,11.40
2023-05-02T06:14:05.252Z,11.70
2023-05-02T06:16:33.579Z,11.70
2023-05-02T06:19:01.181Z,11.40
2023-05-02T06:21:30.685Z,11.60
2023-05-02T06:23:58.106Z,11.40
2023-05-02T06:26:25.794Z,11.70
2023-05-02T06:28:54.572Z,11.70
2023-05-02T06:31:21.936Z,11.70
2023-05-02T06:33:49.620Z,11.80
2023-05-02T06:36:17.046Z,11.90
2023-05-02T06:38:44.414Z,11.90
2023-05-02T06:41:18.470Z,12.00
2023-05-02T06:43:45.794Z,12.20
2023-05-02T06:46:13.383Z,12.00
2023-05-02T06:48:40.544Z,12.40
2023-05-02T06:51:07.764Z,12.70
2023-05-02T06:53:35.172Z,12.80
2023-05-02T06:56:05.955Z,13.00
2023-05-02T06:58:34.068Z,13.30
2023-05-02T07:01:01.516Z,13.20
2023-05-02T07:03:29.121Z,13.30
2023-05-02T07:05:56.594Z,13.20
2023-05-02T07:08:26.216Z,13.20
2023-05-02T07:10:53.560Z,12.80
2023-05-02T07:13:21.408Z,12.90
2023-05-02T07:15:48.852Z,13.20
2023-05-02T07:18:16.318Z,12.80
2023-05-02T07:20:43.602Z,12.90
2023-05-02T07:23:10.917Z,13.20
2023-05-02T07:25:38.195Z,13.10
2023-05-02T07:28:05.980Z,13.10
2023-05-02T07:30:33.604Z,13.20
2023-05-02T07:33:01.310Z,13.40
2023-05-02T07:35:28.514Z,13.30
2023-05-02T07:37:56.983Z,13.20
2023-05-02T07:40:27.050Z,13.50
2023-05-02T07:42:54.707Z,13.40
2023-05-02T07:45:22.236Z,13.40
2023-05-02T07:47:49.386Z,13.40
2023-05-02T07:50:17.272Z,13.70
2023-05-02T07:52:44.799Z,13.70
2023-05-02T07:55:12.468Z,13.70
2023-05-02T07:57:40.397Z,13.70
2023-05-02T08:00:10.475Z,13.90
2023-05-02T08:02:38.114Z,14.00
2023-05-02T08:05:05.855Z,13.80
2023-05-02T08:07:37.050Z,14.00
2023-05-02T08:10:06.083Z,13.70
2023-05-02T08:12:37.930Z,14.00
2023-05-02T08:15:10.781Z,13.90
2023-05-02T08:17:38.392Z,13.70
2023-05-02T08:20:06.334Z,13.70
2023-05-02T08:22:33.480Z,13.70
2023-05-02T08:25:00.713Z,13.50
2023-05-02T08:27:28.063Z,13.70
2023-05-02T08:29:56.772Z,14.00
2023-05-02T08:32:25.757Z,14.10
2023-05-02T08:34:59.557Z,14.10
2023-05-02T08:37:27.305Z,14.00
2023-05-02T08:39:54.824Z,14.10
2023-05-02T08:42:22.934Z,14.10
2023-05-02T08:44:50.307Z,14.10
2023-05-02T08:47:19.726Z,14.20
2023-05-02T08:49:47.398Z,14.30
2023-05-02T08:52:15.941Z,14.50
2023-05-02T08:54:45.064Z,14.70
2023-05-02T08:57:12.243Z,14.50
2023-05-02T08:59:39.754Z,14.80
2023-05-02T09:02:36.663Z,14.80
2023-05-02T09:05:08.125Z,14.50
2023-05-02T09:07:47.302Z,14.80
2023-05-02T09:10:15.128Z,15.00
2023-05-02T09:12:42.794Z,15.10
2023-05-02T09:15:18.354Z,15.30
2023-05-02T09:17:48.940Z,15.40
2023-05-02T09:20:17.216Z,15.40
2023-05-02T09:22:52.221Z,15.50
2023-05-02T09:25:23.130Z,15.50
2023-05-02T09:27:52.428Z,15.50
2023-05-02T09:30:22.246Z,15.50
2023-05-02T09:32:54.271Z,15.50
2023-05-02T09:35:25.026Z,15.80
2023-05-02T09:37:56.819Z,15.50
2023-05-02T09:40:24.856Z,15.60
2023-05-02T09:42:53.057Z,15.80
2023-05-02T09:45:24.680Z,16.00
2023-05-02T09:47:54.267Z,15.80
2023-05-02T09:50:38.093Z,16.20
2023-05-02T09:53:07.680Z,15.90
2023-05-02T09:55:34.982Z,16.50
2023-05-02T09:58:02.957Z,16.40
2023-05-02T10:00:44.440Z,16.70
2023-05-02T10:03:16.742Z,16.80
2023-05-02T10:05:47.999Z,17.00
2023-05-02T10:08:19.037Z,17.10
2023-05-02T10:10:53.452Z,17.10
2023-05-02T10:13:23.041Z,16.90
2023-05-02T10:15:57.777Z,17.20
2023-05-02T10:18:29.333Z,17.30
2023-05-02T10:21:05.005Z,17.30
2023-05-02T10:23:34.807Z,17.50
2023-05-02T10:26:02.444Z,17.40
2023-05-02T10:28:30.824Z,17.30
2023-05-02T10:31:00.480Z,17.20
2023-05-02T10:33:31.980Z,17.60
2023-05-02T10:35:59.440Z,17.60
2023-05-02T10:38:27.079Z,17.70
2023-05-02T10:40:58.952Z,17.70
2023-05-02T10:43:29.203Z,17.30
2023-05-02T10:45:56.967Z,17.80
2023-05-02T10:48:26.181Z,18.10
2023-05-02T10:51:02.084Z,18.60
2023-05-02T10:53:40.396Z,18.90
2023-05-02T10:56:21.851Z,18.90
2023-05-02T10:58:52.203Z,19.10
2023-05-02T11:01:29.220Z,19.20
2023-05-02T11:04:07.685Z,19.30
2023-05-02T11:07:14.970Z,19.50
2023-05-02T11:09:41.951Z,19.80
2023-05-02T11:12:09.724Z,20.10
2023-05-02T11:14:39.933Z,20.00
2023-05-02T11:17:08.727Z,20.20
2023-05-02T11:19:39.075Z,20.10
2023-05-02T11:22:22.044Z,20.10
2023-05-02T11:24:50.556Z,19.90
2023-05-02T11:27:30.366Z,19.90
2023-05-02T11:30:04.031Z,20.00
2023-05-02T11:32:51.026Z,19.70
2023-05-02T11:35:19.841Z,19.90
2023-05-02T11:38:01.801Z,20.20
2023-05-02T11:40:29.482Z,20.40
2023-05-02T11:42:59.322Z,20.60
2023-05-02T11:45:36.568Z,20.60
2023-05-02T11:48:07.173Z,20.80
2023-05-02T11:50:55.928Z,20.80
2023-05-02T11:53:25.863Z,21.10
2023-05-02T11:55:56.410Z,21.30
2023-05-02T11:58:29.999Z,21.50
2023-05-02T12:00:57.839Z,21.70
2023-05-02T12:03:33.101Z,21.80
2023-05-02T12:06:12.786Z,21.80
2023-05-02T12:08:41.308Z,21.70
2023-05-02T12:11:09.386Z,21.60
2023-05-02T12:13:56.301Z,21.50
2023-05-02T12:16:23.737Z,21.30
2023-05-02T12:18:51.407Z,21.20
2023-05-02T12:21:19.410Z,21.10
2023-05-02T12:23:47.448Z,21.30
2023-05-02T12:26:20.011Z,21.00
2023-05-02T12:28:51.746Z,20.80
2023-05-02T12:31:20.069Z,20.40
2023-05-02T12:33:50.398Z,20.30
2023-05-02T12:36:21.882Z,20.80
2023-05-02T12:38:55.222Z,21.40
2023-05-02T12:41:34.817Z,21.90
2023-05-02T12:44:02.325Z,22.40
2023-05-02T12:46:30.237Z,22.70
2023-05-02T12:49:09.892Z,22.90
2023-05-02T12:51:40.800Z,23.00
2023-05-02T12:54:08.055Z,23.10
2023-05-02T12:56:41.124Z,23.60
2023-05-02T12:59:08.618Z,23.80
2023-05-02T13:01:36.372Z,23.60
2023-05-02T13:04:04.706Z,23.30
2023-05-02T13:06:32.486Z,22.80
2023-05-02T13:09:00.997Z,22.60
2023-05-02T13:11:28.415Z,22.80
2023-05-02T13:13:56.705Z,22.80
2023-05-02T13:16:24.798Z,22.70
2023-05-02T13:18:52.379Z,22.40
2023-05-02T13:21:19.835Z,22.00
2023-05-02T13:23:51.241Z,21.60
2023-05-02T13:26:18.896Z,21.30
2023-05-02T13:28:46.542Z,21.00
2023-05-02T13:31:13.876Z,20.60
2023-05-02T13:33:41.501Z,20.50
2023-05-02T13:36:08.932Z,19.90
2023-05-02T13:38:36.802Z,19.50
2023-05-02T13:41:04.382Z,19.60
2023-05-02T13:43:31.514Z,19.40
2023-05-02T13:45:59.391Z,19.10
2023-05-02T13:48:27.030Z,19.00
2023-05-02T13:50:54.311Z,19.10
2023-05-02T13:53:21.526Z,19.20
2023-05-02T13:55:49.310Z,19.40
2023-05-02T13:58:16.545Z,20.00
2023-05-02T14:00:44.113Z,20.10
2023-05-02T14:03:11.546Z,20.30
2023-05-02T14:05:43.682Z,20.40
2023-05-02T14:08:12.060Z,20.20
2023-05-02T14:10:39.610Z,20.40
2023-05-02T14:13:07.211Z,20.10
2023-05-02T14:15:34.397Z,19.90
2023-05-02T14:18:01.866Z,19.70
2023-05-02T14:20:29.637Z,19.60
2023-05-02T14:22:57.131Z,19.10
2023-05-02T14:25:24.512Z,18.90
2023-05-02T14:27:51.654Z,18.70
2023-05-02T14:30:18.998Z,18.30
2023-05-02T14:32:46.404Z,18.00
2023-05-02T14:35:13.681Z,17.70
2023-05-02T14:37:40.912Z,17.30
2023-05-02T14:40:09.297Z,17.30
2023-05-02T14:42:36.310Z,16.80
2023-05-02T14:45:07.562Z,17.10
2023-05-02T14:47:35.139Z,17.10
2023-05-02T14:50:03.958Z,16.60
2023-05-02T14:52:31.507Z,16.50
2023-05-02T14:55:03.131Z,16.50
2023-05-02T14:57:30.543Z,16.80
2023-05-02T14:59:57.819Z,16.60
2023-05-02T15:02:34.941Z,16.70
2023-05-02T15:05:03.270Z,16.60
2023-05-02T15:07:30.909Z,16.90
2023-05-02T15:09:58.478Z,16.50
2023-05-02T15:12:26.544Z,17.00
2023-05-02T15:14:54.040Z,17.20
2023-05-02T15:17:21.728Z,17.20
2023-05-02T15:19:49.152Z,17.40
2023-05-02T15:22:18.359Z,17.50
2023-05-02T15:24:46.196Z,17.80
2023-05-02T15:27:13.972Z,18.20
2023-05-02T15:29:41.438Z,18.80
2023-05-02T15:32:08.922Z,20.00
2023-05-02T15:34:36.577Z,20.60
2023-05-02T15:37:04.027Z,20.80
2023-05-02T15:39:31.666Z,21.00
2023-05-02T15:42:04.963Z,21.20
2023-05-02T15:44:39.365Z,21.60
2023-05-02T15:47:06.573Z,22.10
2023-05-02T15:49:35.002Z,22.50
2023-05-02T15:52:03.638Z,22.90
2023-05-02T15:54:33.979Z,23.30
2023-05-02T15:57:02.773Z,23.80
2023-05-02T15:59:30.190Z,24.30
2023-05-02T16:01:57.702Z,24.80
2023-05-02T16:04:25.500Z,24.80
2023-05-02T16:06:52.932Z,24.90
2023-05-02T16:09:22.137Z,24.60
2023-05-02T16:11:49.524Z,24.10
2023-05-02T16:14:17.382Z,23.60
2023-05-02T16:16:44.833Z,23.70
2023-05-02T16:19:13.727Z,24.10
2023-05-02T16:21:42.413Z,24.60
2023-05-02T16:24:10.168Z,24.90
2023-05-02T16:26:37.518Z,24.80
2023-05-02T16:29:04.897Z,24.70
2023-05-02T16:31:32.180Z,24.80
2023-05-02T16:33:59.670Z,25.00
2023-05-02T16:36:30.119Z,25.20
2023-05-02T16:38:57.544Z,25.30
2023-05-02T16:41:24.725Z,25.40
2023-05-02T16:43:51.782Z,25.50
2023-05-02T16:46:19.932Z,25.60
2023-05-02T16:48:47.442Z,25.60
2023-05-02T16:51:15.458Z,25.60
2023-05-02T16:53:44.050Z,25.50
2023-05-02T16:56:11.561Z,25.50
2023-05-02T16:58:38.819Z,25.40
2023-05-02T17:01:06.053Z,25.30
2023-05-02T17:03:33.754Z,25.20
2023-05-02T17:06:05.071Z,25.10
2023-05-02T17:08:33.406Z,25.00
2023-05-02T17:11:00.695Z,25.00
2023-05-02T17:13:28.249Z,25.00
2023-05-02T17:15:55.955Z,24.90
2023-05-02T17:18:24.579Z,24.80
2023-05-02T17:20:54.978Z,24.50
2023-05-02T17:23:22.767Z,23.70
2023-05-02T17:25:51.189Z,23.00
2023-05-02T17:28:18.351Z,22.30
2023-05-02T17:30:46.493Z,21.70
2023-05-02T17:33:13.977Z,21.20
2023-05-02T17:35:41.431Z,20.40
2023-05-02T17:38:09.096Z,20.20
2023-05-02T17:40:38.157Z,19.90
2023-05-02T17:43:05.916Z,19.40
2023-05-02T17:45:33.950Z,19.70
2023-05-02T17:48:03.799Z,19.30
2023-05-02T17:50:36.462Z,19.10
2023-05-02T17:53:05.020Z,18.80
2023-05-02T17:55:35.915Z,18.60
2023-05-02T17:58:04.441Z,18.40
2023-05-02T18:00:32.084Z,18.00
2023-05-02T18:03:00.108Z,17.90
2023-05-02T18:05:28.240Z,17.30
2023-05-02T18:07:56.269Z,17.10
2023-05-02T18:10:23.818Z,17.00
2023-05-02T18:12:51.554Z,16.80
2023-05-02T18:15:18.911Z,16.70
2023-05-02T18:17:46.112Z,16.70
2023-05-02T18:20:14.527Z,16.30
2023-05-02T18:22:41.695Z,16.50
2023-05-02T18:25:10.023Z,16.20
2023-05-02T18:27:37.400Z,16.40
2023-05-02T18:30:05.470Z,16.00
2023-05-02T18:32:36.761Z,16.00
2023-05-02T18:35:09.477Z,15.80
2023-05-02T18:37:37.140Z,15.70
2023-05-02T18:40:05.052Z,15.80
2023-05-02T18:42:32.679Z,15.60
2023-05-02T18:45:01.065Z,15.70
2023-05-02T18:47:31.336Z,15.40
2023-05-02T18:49:59.788Z,15.40
2023-05-02T18:52:29.272Z,15.20
2023-05-02T18:54:56.808Z,15.10
2023-05-02T18:57:24.672Z,14.80
2023-05-02T18:59:52.203Z,14.70
2023-05-02T19:02:19.441Z,14.60
2023-05-02T19:04:47.101Z,14.40
2023-05-02T19:07:14.747Z,14.10
2023-05-02T19:09:42.607Z,14.10
2023-05-02T19:12:10.025Z,14.10
2023-05-02T19:14:39.890Z,13.80
2023-05-02T19:17:08.293Z,13.50
2023-05-02T19:19:35.991Z,13.70
2023-05-02T19:22:06.308Z,13.20
2023-05-02T19:24:35.676Z,13.60
2023-05-02T19:27:17.770Z,13.50
2023-05-02T19:29:45.270Z,13.30
2023-05-02T19:32:12.919Z,13.20
2023-05-02T19:34:40.084Z,13.20
2023-05-02T19:37:08.152Z,13.10
2023-05-02T19:39:35.905Z,13.20
2023-05-02T19:42:03.499Z,13.10
2023-05-02T19:44:30.933Z,12.80
2023-05-02T19:46:58.289Z,12.90
2023-05-02T19:49:28.042Z,12.70
2023-05-02T19:51:55.451Z,12.90
2023-05-02T19:54:23.040Z,12.90
2023-05-02T19:56:50.740Z,12.60
2023-05-02T19:59:18.180Z,12.60
2023-05-02T20:01:47.025Z,12.90
2023-05-02T20:04:14.685Z,12.60
2023-05-02T20:06:42.166Z,12.40
2023-05-02T20:09:10.058Z,12.50
2023-05-02T20:11:37.531Z,12.50
2023-05-02T20:14:05.188Z,12.70
2023-05-02T20:16:33.073Z,12.30
2023-05-02T20:19:00.470Z,12.50
2023-05-02T20:21:27.547Z,12.30
2023-05-02T20:23:55.143Z,12.40
2023-05-02T20:26:23.185Z,12.30
2023-05-02T20:28:51.432Z,12.30
2023-05-02T20:31:19.006Z,12.10
2023-05-02T20:33:54.234Z,12.30
2023-05-02T20:36:23.827Z,12.10
2023-05-02T20:38:51.510Z,12.30
2023-05-02T20:41:18.986Z,12.30
2023-05-02T20:43:47.494Z,12.10
2023-05-02T20:46:19.355Z,12.10
2023-05-02T20:48:48.189Z,12.00
2023-05-02T20:51:21.646Z,12.20
2023-05-02T20:53:52.487Z,12.20
2023-05-02T20:56:20.278Z,12.10
2023-05-02T20:58:47.390Z,12.10
2023-05-02T21:01:26.939Z,12.00
2023-05-02T21:03:55.484Z,12.00
2023-05-02T21:06:23.163Z,12.00
2023-05-02T21:08:51.310Z,12.20
2023-05-02T21:11:18.860Z,12.20
2023-05-02T21:13:45.861Z,12.10
2023-05-02T21:16:17.755Z,12.20
2023-05-02T21:18:46.536Z,12.00
2023-05-02T21:21:13.905Z,12.00
2023-05-02T21:23:41.135Z,12.20
2023-05-02T21:26:08.882Z,12.00
2023-05-02T21:28:36.230Z,12.20
2023-05-02T21:31:04.185Z,12.20
2023-05-02T21:33:31.856Z,12.10
2023-05-02T21:35:59.867Z,12.10
2023-05-02T21:38:27.735Z,12.20
2023-05-02T21:40:54.985Z,12.40
2023-05-02T21:43:22.397Z,12.20
2023-05-02T21:45:51.227Z,12.30
2023-05-02T21:48:19.432Z,12.50
2023-05-02T21:50:47.090Z,12.60
2023-05-02T21:53:14.718Z,12.50
2023-05-02T21:55:42.599Z,12.50
2023-05-02T21:58:11.484Z,12.20
2023-05-02T22:00:39.927Z,12.10
2023-05-02T22:03:10.758Z,12.30
2023-05-02T22:05:42.182Z,12.10
2023-05-02T22:08:15.839Z,12.20
2023-05-02T22:10:43.767Z,12.10
2023-05-02T22:13:12.789Z,12.40
2023-05-02T22:15:43.389Z,12.00
2023-05-02T22:18:10.791Z,12.10
2023-05-02T22:20:38.418Z,12.10
2023-05-02T22:23:06.558Z,12.10
2023-05-02T22:25:36.013Z,11.80
2023-05-02T22:28:07.137Z,11.90
2023-05-02T22:30:36.654Z,12.10
2023-05-02T22:33:04.306Z,11.80
2023-05-02T22:35:31.559Z,11.70
2023-05-02T22:38:00.429Z,11.80
2023-05-02T22:40:30.355Z,11.50
2023-05-02T22:42:58.543Z,11.70
2023-05-02T22:45:27.125Z,11.70
2023-05-02T22:47:54.862Z,11.70
2023-05-02T22:50:22.661Z,11.40
2023-05-02T22:52:57.287Z,11.70
2023-05-02T22:55:24.963Z,11.60
2023-05-02T22:57:52.584Z,11.60
2023-05-02T23:00:20.145Z,11.70
2023-05-02T23:02:47.385Z,11.60
2023-05-02T23:05:14.671Z,11.30
2023-05-02T23:07:41.795Z,11.30
2023-05-02T23:10:09.786Z,11.20
2023-05-02T23:12:36.944Z,11.40
2023-05-02T23:15:05.039Z,11.40
2023-05-02T23:17:32.661Z,11.20
2023-05-02T23:20:00.462Z,11.50
2023-05-02T23:22:27.970Z,11.00
2023-05-02T23:24:55.559Z,11.40
2023-05-02T23:27:23.026Z,11.00
2023-05-02T23:29:50.689Z,11.30
2023-05-02T23:32:17.964Z,11.20
2023-05-02T23:34:45.927Z,11.10
2023-05-02T23:37:14.457Z,11.10
2023-05-02T23:39:41.918Z,11.20
2023-05-02T23:42:09.382Z,10.80
2023-05-02T23:44:36.722Z,11.00
2023-05-02T23:47:04.510Z,10.90
2023-05-02T23:49:31.897Z,11.00
2023-05-02T23:51:59.010Z,10.80
2023-05-02T23:54:26.692Z,10.80
2023-05-02T23:56:53.928Z,11.10
2023-05-02T23:59:21.364Z,10.70
